Time;durP1;ratioP1;P1;durP2;ratioP2;P2;SDS_P1;SDS_P2;PMS_P1;PMS_P2;Temp;Humidity;BMP_temperature;BMP_pressure;BME280_temperature;BME280_humidity;BME280_pressure;Samples;Min_cycle;Max_cycle;Signal;HPM_P1;HPM_P2
2022/08/29 00:02:21;;;;;;;2.58;1.30;;;20.50;49.70;;;;;;5001200;28;20472;-75
2022/08/29 00:04:47;;;;;;;1.42;1.02;;;20.50;49.80;;;;;;5003100;28;20034;-75
2022/08/29 00:07:13;;;;;;;2.35;1.48;;;20.50;49.90;;;;;;5004448;28;20307;-76
2022/08/29 00:09:39;;;;;;;1.63;1.20;;;20.50;50.00;;;;;;5005856;28;20053;-76
2022/08/29 00:12:06;;;;;;;1.80;1.02;;;20.50;50.10;;;;;;5001358;28;20053;-75
2022/08/29 00:14:32;;;;;;;2.70;1.20;;;20.50;50.20;;;;;;5003247;28;20029;-77
2022/08/29 00:16:59;;;;;;;3.90;1.85;;;20.40;50.10;;;;;;5001347;28;20029;-73
2022/08/29 00:19:26;;;;;;;2.03;1.17;;;20.40;50.70;;;;;;4993639;28;20030;-75
2022/08/29 00:21:52;;;;;;;3.42;1.48;;;20.40;50.30;;;;;;5006315;28;20392;-74
2022/08/29 00:24:18;;;;;;;2.72;1.52;;;20.40;50.40;;;;;;4997817;28;20064;-76
2022/08/29 00:26:44;;;;;;;1.65;1.15;;;20.30;50.30;;;;;;5005110;28;20029;-77
2022/08/29 00:29:11;;;;;;;1.88;1.60;;;20.30;50.30;;;;;;5012641;28;20021;-74
2022/08/29 00:31:36;;;;;;;3.88;1.55;;;20.30;50.50;;;;;;5008215;28;20042;-75
2022/08/29 00:34:02;;;;;;;2.55;1.70;;;20.30;50.60;;;;;;5001876;28;20088;-76
2022/08/29 00:36:28;;;;;;;2.10;1.42;;;20.20;50.50;;;;;;4990548;28;20030;-76
2022/08/29 00:38:54;;;;;;;1.52;1.30;;;20.20;50.60;;;;;;4988731;28;20468;-75
2022/08/29 00:41:20;;;;;;;1.15;0.95;;;20.20;50.70;;;;;;5004691;28;20026;-73
2022/08/29 00:43:46;;;;;;;3.78;1.70;;;20.20;50.80;;;;;;5002506;28;20313;-74
2022/08/29 00:46:24;;;;;;;3.55;2.63;;;20.20;50.90;;;;;;5007084;28;20026;-74
2022/08/29 00:48:58;;;;;;;2.83;1.33;;;20.20;51.10;;;;;;5005541;28;20026;-74
2022/08/29 00:51:24;;;;;;;2.67;1.50;;;20.10;50.90;;;;;;5003529;28;20107;-73
2022/08/29 00:53:57;;;;;;;1.70;1.20;;;20.10;50.90;;;;;;5000706;28;20490;-73
2022/08/29 00:56:24;;;;;;;2.28;1.63;;;20.10;51.00;;;;;;5007532;28;20036;-73
2022/08/29 00:58:59;;;;;;;2.42;1.70;;;20.10;51.00;;;;;;5007900;28;20034;-75
2022/08/29 01:01:25;;;;;;;1.83;1.20;;;20.10;51.10;;;;;;5000339;28;20030;-75
2022/08/29 01:03:53;;;;;;;2.00;1.38;;;20.10;51.10;;;;;;4986064;28;20577;-75
2022/08/29 01:06:21;;;;;;;2.00;1.27;;;20.10;51.20;;;;;;5003682;28;20038;-74
2022/08/29 01:08:47;;;;;;;2.75;1.95;;;20.10;51.30;;;;;;5009809;28;20033;-73
2022/08/29 01:14:02;;;;;;;2.28;1.60;;;20.00;51.20;;;;;;5005570;28;20045;-72
2022/08/29 01:16:30;;;;;;;1.63;1.20;;;20.00;51.30;;;;;;5012289;28;20030;-76
2022/08/29 01:19:00;;;;;;;1.73;1.33;;;20.00;51.40;;;;;;4994081;28;20030;-76
2022/08/29 01:22:00;;;;;;;1.80;1.35;;;20.00;51.40;;;;;;5006187;28;20034;-73
2022/08/29 01:24:31;;;;;;;2.67;1.58;;;20.00;51.50;;;;;;4993600;28;20026;-76
2022/08/29 01:26:57;;;;;;;3.15;1.35;;;19.90;51.30;;;;;;5008646;28;20043;-77
2022/08/29 01:29:23;;;;;;;2.15;1.30;;;19.90;51.40;;;;;;5008491;28;20204;-75
2022/08/29 01:31:50;;;;;;;2.85;1.17;;;19.90;51.50;;;;;;5004652;28;20034;-74
2022/08/29 01:34:17;;;;;;;2.33;1.80;;;19.90;51.60;;;;;;5003796;28;20396;-75
2022/08/29 01:36:50;;;;;;;2.72;1.40;;;19.80;51.50;;;;;;5005071;28;20044;-76
2022/08/29 01:39:17;;;;;;;;;;;19.80;51.60;;;;;;5006382;28;20025;-75
2022/08/29 01:41:43;;;;;;;1.40;1.30;;;19.80;51.50;;;;;;5006004;28;19917;-74
2022/08/29 01:44:18;;;;;;;1.55;1.45;;;19.80;51.50;;;;;;5005761;28;20084;-75
2022/08/29 01:46:47;;;;;;;4.85;1.52;;;19.70;51.50;;;;;;5039051;22;20049;-88
2022/08/29 01:49:15;;;;;;;3.03;1.70;;;19.70;51.60;;;;;;5050019;28;20041;-87
2022/08/29 01:51:41;;;;;;;2.28;1.35;;;19.70;51.70;;;;;;5050184;28;20044;-89
2022/08/29 01:54:11;;;;;;;2.65;1.58;;;19.70;51.80;;;;;;5038317;28;20076;-88
2022/08/29 01:56:43;;;;;;;1.90;1.70;;;19.70;52.00;;;;;;5028987;28;20033;-88
2022/08/29 01:59:13;;;;;;;3.50;1.65;;;19.70;52.00;;;;;;5028468;28;20368;-88
2022/08/29 02:01:44;;;;;;;1.60;1.50;;;19.60;51.90;;;;;;5029965;28;20701;-89
2022/08/29 02:04:12;;;;;;;2.70;1.30;;;19.60;52.00;;;;;;5027869;28;20030;-86
2022/08/29 02:06:39;;;;;;;2.58;1.50;;;19.60;52.10;;;;;;5016533;28;20053;-88
2022/08/29 02:09:07;;;;;;;2.42;1.65;;;19.50;52.00;;;;;;5030236;28;20022;-90
2022/08/29 02:11:37;;;;;;;1.88;1.25;;;19.50;52.10;;;;;;5030368;28;20056;-88
2022/08/29 02:14:04;;;;;;;2.25;1.38;;;19.40;52.00;;;;;;5023050;28;20026;-89
2022/08/29 02:16:31;;;;;;;3.25;1.27;;;19.40;52.10;;;;;;5022378;28;20021;-89
2022/08/29 02:18:57;;;;;;;2.03;1.10;;;19.40;52.20;;;;;;5013676;28;20017;-90
2022/08/29 02:21:25;;;;;;;2.20;1.65;;;19.40;52.30;;;;;;5017323;28;20166;-86
2022/08/29 02:23:53;;;;;;;3.08;1.20;;;19.30;52.30;;;;;;5022891;28;20041;-87
2022/08/29 02:26:20;;;;;;;2.25;1.10;;;19.30;52.40;;;;;;5024707;28;20386;-84
2022/08/29 02:28:49;;;;;;;1.88;1.20;;;19.20;52.20;;;;;;5028661;28;20030;-86
2022/08/29 02:31:17;;;;;;;2.25;1.55;;;19.20;52.30;;;;;;5022723;28;20046;-86
2022/08/29 02:33:44;;;;;;;2.00;1.33;;;19.20;52.40;;;;;;5027447;28;20033;-90
2022/08/29 02:36:10;;;;;;;3.58;1.40;;;19.20;52.50;;;;;;5025218;28;20148;-88
2022/08/29 02:38:36;;;;;;;3.42;1.75;;;19.10;52.40;;;;;;5021494;28;20087;-89
2022/08/29 02:41:02;;;;;;;2.80;1.27;;;19.10;52.50;;;;;;5029178;28;20029;-86
2022/08/29 02:43:28;;;;;;;2.67;1.20;;;19.10;52.60;;;;;;5018704;28;20068;-86
2022/08/29 02:45:54;;;;;;;2.42;1.13;;;19.10;52.70;;;;;;5027488;28;20033;-88
2022/08/29 02:48:20;;;;;;;1.67;1.40;;;19.00;52.60;;;;;;5028833;28;20128;-88
2022/08/29 02:50:49;;;;;;;1.92;1.58;;;19.00;52.70;;;;;;4997596;28;20358;-87
2022/08/29 02:53:21;;;;;;;2.35;1.23;;;19.00;52.80;;;;;;5002995;28;20017;-89
2022/08/29 02:55:47;;;;;;;2.83;1.52;;;18.90;52.70;;;;;;5003398;28;20101;-89
2022/08/29 02:58:14;;;;;;;1.77;1.05;;;18.90;52.70;;;;;;5009452;28;20022;-90
2022/08/29 03:00:41;;;;;;;1.90;1.52;;;18.90;52.80;;;;;;5013375;28;20026;-90
2022/08/29 03:03:07;;;;;;;1.90;1.30;;;18.90;52.90;;;;;;5010374;28;20098;-87
2022/08/29 03:05:35;;;;;;;2.38;1.33;;;18.90;53.00;;;;;;5000122;28;20032;-85
2022/08/29 03:08:05;;;;;;;1.98;1.48;;;18.80;52.90;;;;;;5024690;28;20113;-86
2022/08/29 03:10:32;;;;;;;2.25;1.33;;;18.80;53.00;;;;;;4999084;28;20401;-86
2022/08/29 03:12:58;;;;;;;1.88;1.20;;;18.70;52.80;;;;;;5015312;28;20422;-86
2022/08/29 03:15:24;;;;;;;3.72;1.33;;;18.80;53.80;;;;;;5024441;28;20396;-86
2022/08/29 03:17:51;;;;;;;2.97;1.40;;;18.70;53.10;;;;;;5017568;28;20364;-86
2022/08/29 03:20:20;;;;;;;1.88;1.40;;;18.70;53.10;;;;;;5027815;28;20143;-86
2022/08/29 03:22:46;;;;;;;2.53;1.52;;;18.60;53.10;;;;;;5010688;28;20030;-87
2022/08/29 03:25:13;;;;;;;3.15;1.63;;;18.60;53.10;;;;;;5037566;28;20013;-87
2022/08/29 03:27:39;;;;;;;2.22;1.52;;;18.50;53.10;;;;;;5018080;28;20029;-87
2022/08/29 03:30:07;;;;;;;2.25;1.60;;;18.50;53.10;;;;;;5028614;28;20412;-86
2022/08/29 03:32:38;;;;;;;2.03;1.77;;;18.50;53.30;;;;;;5023717;28;20021;-87
2022/08/29 03:35:06;;;;;;;3.22;1.65;;;18.50;53.40;;;;;;5025895;28;20026;-87
2022/08/29 03:37:32;;;;;;;2.97;1.70;;;18.40;53.30;;;;;;5024461;28;20041;-88
2022/08/29 03:39:58;;;;;;;2.83;1.58;;;18.40;53.40;;;;;;5019480;28;20581;-87
2022/08/29 03:42:24;;;;;;;4.10;2.05;;;18.40;53.50;;;;;;5008853;28;20043;-87
2022/08/29 03:44:50;;;;;;;2.20;1.10;;;18.30;53.40;;;;;;5018780;28;20029;-86
2022/08/29 03:47:16;;;;;;;3.20;1.80;;;18.30;53.50;;;;;;5025035;28;20096;-86
2022/08/29 03:49:43;;;;;;;1.95;1.50;;;18.30;53.60;;;;;;5022857;28;20481;-87
2022/08/29 03:52:09;;;;;;;2.15;1.58;;;18.20;53.50;;;;;;5014505;28;20059;-88
2022/08/29 03:54:35;;;;;;;3.70;1.83;;;18.20;53.70;;;;;;5014720;28;20524;-89
2022/08/29 03:57:06;;;;;;;3.70;1.30;;;18.20;53.70;;;;;;5015188;28;20356;-89
2022/08/29 03:59:33;;;;;;;3.55;1.50;;;18.10;53.70;;;;;;5014761;28;20059;-89
2022/08/29 04:01:59;;;;;;;1.92;1.45;;;18.10;53.70;;;;;;5017828;28;20014;-91
2022/08/29 04:07:12;;;;;;;4.50;1.85;;;18.00;53.70;;;;;;5012275;28;20919;-87
2022/08/29 04:09:39;;;;;;;2.50;1.58;;;18.00;53.80;;;;;;5027033;28;20033;-89
2022/08/29 04:12:10;;;;;;;4.40;1.95;;;17.90;53.80;;;;;;5016497;28;20337;-87
2022/08/29 04:14:37;;;;;;;2.50;1.30;;;17.90;53.90;;;;;;5026867;28;20045;-85
2022/08/29 04:17:04;;;;;;;3.95;1.95;;;17.90;54.00;;;;;;5025739;28;20025;-85
2022/08/29 04:19:30;;;;;;;3.25;1.60;;;17.80;53.90;;;;;;5002050;28;20103;-85
2022/08/29 04:21:56;;;;;;;3.28;1.63;;;17.80;54.10;;;;;;5014854;28;20037;-86
2022/08/29 04:24:23;;;;;;;5.75;1.75;;;17.80;54.20;;;;;;4995395;28;20025;-86
2022/08/29 04:26:49;;;;;;;1.67;1.48;;;17.70;54.10;;;;;;5016390;28;20051;-85
2022/08/29 04:29:15;;;;;;;2.65;1.70;;;17.60;53.90;;;;;;5025302;28;20442;-87
2022/08/29 04:31:42;;;;;;;3.22;1.45;;;17.70;54.30;;;;;;5024740;28;20337;-88
2022/08/29 04:34:10;;;;;;;2.80;1.55;;;17.60;54.20;;;;;;5012305;28;20029;-87
2022/08/29 04:36:40;;;;;;;3.10;1.50;;;17.60;54.30;;;;;;5009501;28;20091;-88
2022/08/29 04:39:07;;;;;;;3.47;1.55;;;17.50;54.30;;;;;;5024400;28;20021;-87
2022/08/29 04:41:33;;;;;;;2.63;1.40;;;17.50;54.40;;;;;;5021812;28;20028;-87
2022/08/29 04:44:00;;;;;;;2.20;1.40;;;17.50;54.50;;;;;;5008769;28;20033;-88
2022/08/29 04:46:26;;;;;;;2.13;1.67;;;17.50;54.60;;;;;;5014941;28;20124;-86
2022/08/29 04:48:53;;;;;;;2.58;1.52;;;17.40;54.50;;;;;;5010196;28;20022;-88
2022/08/29 04:51:19;;;;;;;4.60;1.40;;;17.40;54.60;;;;;;5027918;28;20026;-89
2022/08/29 04:53:46;;;;;;;2.03;1.50;;;17.40;54.60;;;;;;5016627;28;20028;-87
2022/08/29 04:56:13;;;;;;;2.75;1.75;;;17.40;54.80;;;;;;4994677;28;20091;-89
2022/08/29 04:58:41;;;;;;;3.92;1.27;;;17.40;54.80;;;;;;5012361;28;20263;-88
2022/08/29 05:01:11;;;;;;;2.50;1.48;;;17.30;54.80;;;;;;5017702;28;20033;-87
2022/08/29 05:03:37;;;;;;;4.60;1.83;;;17.30;54.90;;;;;;5017090;28;20429;-88
2022/08/29 05:06:06;;;;;;;2.50;1.40;;;17.30;55.00;;;;;;5010202;28;20025;-89
2022/08/29 05:08:34;;;;;;;2.10;1.45;;;17.20;54.80;;;;;;4996919;28;21216;-87
2022/08/29 05:11:00;;;;;;;3.60;2.00;;;17.20;54.90;;;;;;5014797;28;20034;-84
2022/08/29 05:13:26;;;;;;;1.88;1.52;;;17.20;55.00;;;;;;4994648;28;20469;-84
2022/08/29 05:15:52;;;;;;;2.75;1.83;;;17.20;55.10;;;;;;4999215;28;20327;-86
2022/08/29 05:18:19;;;;;;;2.38;1.80;;;17.20;55.20;;;;;;5025338;28;20087;-85
2022/08/29 05:20:47;;;;;;;3.35;2.25;;;17.10;55.10;;;;;;5016863;28;20525;-84
2022/08/29 05:23:15;;;;;;;1.48;1.38;;;17.10;55.20;;;;;;4995792;28;20033;-85
2022/08/29 05:25:42;;;;;;;5.07;2.10;;;17.10;55.30;;;;;;4999012;28;20106;-86
2022/08/29 05:28:10;;;;;;;3.40;1.73;;;17.00;55.10;;;;;;5015556;28;20033;-87
2022/08/29 05:30:37;;;;;;;2.97;1.75;;;17.00;55.30;;;;;;5023328;28;20447;-86
2022/08/29 05:33:05;;;;;;;3.22;1.75;;;17.00;55.30;;;;;;5025903;28;20023;-86
2022/08/29 05:35:32;;;;;;;1.60;1.50;;;17.00;55.40;;;;;;5027194;28;20161;-87
2022/08/29 05:38:01;;;;;;;3.70;1.88;;;16.90;55.30;;;;;;5009017;28;20155;-87
2022/08/29 05:40:27;;;;;;;3.30;2.17;;;16.90;55.40;;;;;;5007851;28;20313;-84
2022/08/29 05:42:54;;;;;;;3.10;1.55;;;16.90;55.60;;;;;;5027094;28;20053;-86
2022/08/29 05:45:20;;;;;;;2.65;1.77;;;16.90;55.60;;;;;;5020165;28;20056;-86
2022/08/29 05:47:46;;;;;;;2.50;2.15;;;16.80;55.50;;;;;;4973460;28;21518;-90
2022/08/29 05:50:15;;;;;;;2.13;1.92;;;16.90;55.70;;;;;;4991462;28;20049;-83
2022/08/29 05:52:42;;;;;;;2.75;1.65;;;16.80;55.60;;;;;;5010161;28;20033;-85
2022/08/29 05:55:08;;;;;;;1.92;1.58;;;16.80;55.70;;;;;;4998450;28;20041;-88
2022/08/29 05:57:34;;;;;;;3.80;1.67;;;16.80;55.70;;;;;;5021885;28;20021;-89
2022/08/29 06:00:00;;;;;;;3.40;2.15;;;16.80;55.80;;;;;;5021995;28;20025;-88
2022/08/29 06:02:29;;;;;;;3.75;1.75;;;16.80;55.80;;;;;;5014067;28;20035;-88
2022/08/29 06:04:55;;;;;;;2.47;1.60;;;16.80;55.90;;;;;;5012676;28;20125;-86
2022/08/29 06:07:21;;;;;;;2.88;1.67;;;16.80;55.90;;;;;;5023420;28;20136;-88
2022/08/29 06:09:51;;;;;;;2.38;1.60;;;16.90;56.10;;;;;;4996706;28;20044;-89
2022/08/29 06:12:18;;;;;;;4.97;1.98;;;16.90;56.20;;;;;;5014560;28;20025;-88
2022/08/29 06:14:44;;;;;;;3.72;1.83;;;16.90;56.20;;;;;;4977710;28;20032;-86
2022/08/29 06:17:10;;;;;;;2.33;1.60;;;17.00;56.50;;;;;;5027113;28;20030;-87
2022/08/29 06:19:38;;;;;;;2.42;1.70;;;17.00;56.40;;;;;;5023901;28;20052;-88
2022/08/29 06:22:06;;;;;;;2.58;1.40;;;17.10;56.60;;;;;;5025058;28;20029;-87
2022/08/29 06:24:33;;;;;;;2.83;1.60;;;17.20;56.70;;;;;;5021309;28;20031;-89
2022/08/29 06:27:01;;;;;;;3.40;1.95;;;17.20;56.60;;;;;;5027393;28;20333;-90
2022/08/29 06:29:27;;;;;;;2.47;1.70;;;17.30;56.80;;;;;;4997776;28;20071;-86
2022/08/29 06:31:55;;;;;;;2.33;1.27;;;17.40;56.90;;;;;;4977151;28;20036;-85
2022/08/29 06:34:23;;;;;;;2.10;1.50;;;17.30;56.70;;;;;;5026719;28;20035;-86
2022/08/29 06:36:50;;;;;;;2.35;1.70;;;17.50;57.00;;;;;;5019591;28;20345;-87
2022/08/29 06:39:17;;;;;;;2.53;1.38;;;17.50;57.00;;;;;;5010042;28;20029;-90
2022/08/29 06:41:44;;;;;;;2.45;1.52;;;17.60;57.10;;;;;;4995747;28;20037;-87
2022/08/29 06:44:12;;;;;;;2.25;1.45;;;17.60;56.90;;;;;;4997008;28;20030;-86
2022/08/29 06:46:42;;;;;;;2.05;1.45;;;17.70;57.10;;;;;;5015774;28;20064;-85
2022/08/29 06:49:14;;;;;;;5.70;2.22;;;17.80;57.30;;;;;;4981704;28;20036;-84
2022/08/29 06:51:43;;;;;;;2.15;1.92;;;18.10;57.60;;;;;;4983864;28;20253;-88
2022/08/29 06:54:11;;;;;;;3.97;1.88;;;18.20;57.40;;;;;;5026118;28;20020;-85
2022/08/29 06:56:38;;;;;;;2.22;1.27;;;18.30;57.40;;;;;;4975852;28;20455;-86
2022/08/29 06:59:05;;;;;;;3.20;1.45;;;18.30;57.40;;;;;;5011796;28;20023;-86
2022/08/29 07:01:32;;;;;;;4.22;1.30;;;18.40;57.70;;;;;;4976080;28;20161;-87
2022/08/29 07:03:58;;;;;;;2.35;1.80;;;18.60;58.20;;;;;;4976928;28;20471;-87
2022/08/29 07:06:25;;;;;;;2.60;1.42;;;18.80;58.20;;;;;;5017892;28;20022;-86
2022/08/29 07:08:52;;;;;;;3.88;1.77;;;19.10;58.30;;;;;;5025860;28;20021;-85
2022/08/29 07:11:19;;;;;;;2.38;1.67;;;19.30;58.10;;;;;;5002527;28;20493;-86
2022/08/29 07:13:45;;;;;;;6.10;1.33;;;19.60;58.20;;;;;;5015588;28;20116;-87
2022/08/29 07:16:15;;;;;;;2.85;1.90;;;19.80;58.10;;;;;;5012899;28;20033;-84
2022/08/29 07:18:45;;;;;;;2.53;1.67;;;20.00;58.10;;;;;;5014848;28;20024;-85
2022/08/29 07:21:14;;;;;;;4.15;1.58;;;20.20;58.10;;;;;;4983312;28;20033;-85
2022/08/29 07:23:40;;;;;;;3.28;1.75;;;20.30;58.20;;;;;;5025855;28;20049;-85
2022/08/29 07:26:17;;;;;;;2.63;1.27;;;20.30;58.10;;;;;;5015287;28;20048;-84
2022/08/29 07:28:52;;;;;;;2.53;1.55;;;20.30;58.10;;;;;;4996513;28;20378;-84
2022/08/29 07:31:19;;;;;;;2.75;1.55;;;20.30;58.10;;;;;;5012374;28;20049;-86
2022/08/29 07:33:44;;;;;;;5.32;2.05;;;20.30;58.20;;;;;;5025433;28;20326;-82
2022/08/29 07:36:11;;;;;;;4.30;1.60;;;20.30;58.20;;;;;;4988349;28;20239;-86
2022/08/29 07:38:38;;;;;;;3.53;1.67;;;20.40;58.50;;;;;;5018084;28;20037;-85
2022/08/29 07:41:07;;;;;;;5.05;1.52;;;20.50;58.70;;;;;;5001910;28;20119;-88
2022/08/29 07:43:34;;;;;;;4.10;1.42;;;20.50;58.70;;;;;;5026225;28;20033;-87
2022/08/29 07:46:12;;;;;;;2.53;1.50;;;20.50;58.60;;;;;;5025045;28;20037;-88
2022/08/29 07:48:39;;;;;;;4.00;1.45;;;20.60;58.90;;;;;;5024260;28;20037;-88
2022/08/29 07:51:12;;;;;;;2.17;1.30;;;20.60;58.80;;;;;;4996204;28;20041;-83
2022/08/29 07:53:38;;;;;;;2.72;1.42;;;20.60;58.90;;;;;;5014506;28;20159;-83
2022/08/29 07:56:17;;;;;;;2.58;1.30;;;20.70;59.10;;;;;;5026499;28;20544;-87
2022/08/29 07:58:44;;;;;;;2.95;1.40;;;20.70;59.10;;;;;;5008248;28;20029;-86
2022/08/29 08:01:11;;;;;;;2.35;1.20;;;20.70;59.10;;;;;;5008736;28;20498;-85
2022/08/29 08:03:40;;;;;;;2.78;1.50;;;20.70;59.10;;;;;;5028167;28;20047;-83
2022/08/29 08:06:06;;;;;;;1.95;1.25;;;20.80;59.30;;;;;;5023748;28;20033;-86
2022/08/29 08:08:32;;;;;;;1.38;0.90;;;20.80;59.20;;;;;;5023178;28;20080;-86
2022/08/29 08:10:58;;;;;;;2.50;1.20;;;20.80;59.20;;;;;;4997043;28;20067;-87
2022/08/29 08:13:26;;;;;;;1.80;1.30;;;20.90;59.40;;;;;;5021934;28;20029;-86
2022/08/29 08:15:54;;;;;;;3.53;1.17;;;20.90;59.40;;;;;;4997448;28;20030;-88
2022/08/29 08:18:21;;;;;;;3.40;1.30;;;20.90;59.40;;;;;;5021503;28;20067;-85
2022/08/29 08:20:49;;;;;;;2.35;1.73;;;20.90;59.40;;;;;;4990341;28;20131;-86
2022/08/29 08:23:17;;;;;;;2.90;1.35;;;20.90;59.50;;;;;;5022631;28;20033;-87
2022/08/29 08:25:46;;;;;;;1.83;1.20;;;20.90;59.50;;;;;;5022965;28;20075;-84
2022/08/29 08:28:14;;;;;;;1.60;0.90;;;20.90;59.50;;;;;;5003440;28;20075;-83
2022/08/29 08:30:41;;;;;;;3.40;1.40;;;20.90;59.50;;;;;;5020334;28;20143;-84
2022/08/29 08:33:07;;;;;;;1.98;1.30;;;20.90;59.50;;;;;;5020648;28;20035;-86
2022/08/29 08:35:34;;;;;;;2.47;1.40;;;20.90;59.50;;;;;;4994183;28;20114;-86
2022/08/29 08:38:00;;;;;;;1.77;1.52;;;21.00;59.70;;;;;;5018847;28;20325;-86
2022/08/29 08:40:27;;;;;;;2.60;1.30;;;21.10;59.80;;;;;;5011559;28;20087;-87
2022/08/29 08:42:59;;;;;;;2.60;1.77;;;21.10;59.70;;;;;;5023497;28;20030;-85
2022/08/29 08:45:35;;;;;;;1.57;1.07;;;21.20;59.70;;;;;;5008026;28;20084;-83
2022/08/29 08:48:19;;;;;;;2.78;1.00;;;21.30;59.70;;;;;;5020460;28;20049;-84
2022/08/29 08:51:13;;;;;;;2.03;1.02;;;21.50;59.90;;;;;;5021900;28;20037;-82
2022/08/29 08:53:42;;;;;;;2.03;0.90;;;21.60;59.80;;;;;;5008579;28;20088;-82
2022/08/29 08:56:14;;;;;;;2.28;1.25;;;21.70;59.60;;;;;;5015631;28;20018;-82
2022/08/29 08:58:40;;;;;;;3.88;1.83;;;21.80;59.60;;;;;;5011166;28;20029;-84
2022/08/29 09:01:13;;;;;;;1.40;1.05;;;21.80;59.40;;;;;;5008769;28;20025;-83
2022/08/29 09:04:14;;;;;;;2.70;1.70;;;21.90;59.50;;;;;;5006342;28;20037;-83
2022/08/29 09:07:02;;;;;;;1.60;1.02;;;21.90;59.30;;;;;;5019984;28;20121;-82
2022/08/29 09:09:40;;;;;;;1.92;1.00;;;22.00;59.20;;;;;;5010899;28;20079;-82
2022/08/29 09:12:26;;;;;;;3.80;1.50;;;22.10;59.20;;;;;;5021826;28;20046;-84
2022/08/29 09:15:13;;;;;;;2.35;1.13;;;22.20;59.20;;;;;;5003551;28;20028;-84
2022/08/29 09:17:43;;;;;;;1.85;1.33;;;22.30;59.10;;;;;;4989945;28;20041;-84
2022/08/29 09:20:16;;;;;;;1.30;1.10;;;22.30;59.40;;;;;;4989777;28;20479;-81
2022/08/29 09:22:52;;;;;;;1.73;0.80;;;22.40;58.70;;;;;;4993965;28;20040;-81
2022/08/29 09:25:18;;;;;;;2.80;0.85;;;22.50;58.50;;;;;;5004242;28;20386;-81
2022/08/29 09:27:44;;;;;;;2.83;1.00;;;22.60;58.30;;;;;;5009787;28;20124;-79
2022/08/29 09:30:15;;;;;;;2.00;1.02;;;22.50;57.80;;;;;;5023933;28;20076;-83
2022/08/29 09:33:01;;;;;;;5.53;1.42;;;22.50;57.50;;;;;;5022132;28;20040;-82
2022/08/29 09:35:47;;;;;;;2.58;0.90;;;22.40;57.10;;;;;;4997003;28;20524;-81
2022/08/29 09:38:16;;;;;;;3.45;1.35;;;22.50;57.10;;;;;;4996442;28;20427;-80
2022/08/29 09:40:53;;;;;;;1.60;1.08;;;22.50;57.10;;;;;;5025868;28;20025;-79
2022/08/29 09:43:38;;;;;;;2.10;0.80;;;22.50;57.00;;;;;;4997185;28;20820;-81
2022/08/29 09:46:10;;;;;;;3.20;1.15;;;22.60;56.80;;;;;;5024048;28;20091;-81
2022/08/29 09:48:40;;;;;;;4.25;1.42;;;22.70;56.90;;;;;;5036664;28;20089;-82
2022/08/29 09:51:24;;;;;;;1.17;0.98;;;22.80;56.90;;;;;;5027786;28;20067;-81
2022/08/29 09:54:08;;;;;;;1.85;1.05;;;22.90;56.50;;;;;;5011696;28;20514;-81
2022/08/29 09:56:36;;;;;;;2.13;1.00;;;22.90;56.20;;;;;;5024364;28;20529;-81
2022/08/29 09:59:15;;;;;;;1.80;1.10;;;22.90;56.00;;;;;;5025101;28;20025;-82
2022/08/29 10:01:41;;;;;;;1.92;1.00;;;22.90;55.70;;;;;;5008893;28;20032;-82
2022/08/29 10:04:07;;;;;;;3.67;1.40;;;22.90;55.40;;;;;;5035229;28;20037;-82
2022/08/29 10:06:39;;;;;;;1.80;1.13;;;22.90;55.10;;;;;;5018192;28;20026;-82
2022/08/29 10:09:10;;;;;;;1.73;0.93;;;22.80;54.60;;;;;;5033789;28;20072;-84
2022/08/29 10:11:52;;;;;;;1.48;0.85;;;22.80;54.30;;;;;;5034021;28;20128;-83
2022/08/29 10:14:39;;;;;;;1.83;1.07;;;22.70;54.00;;;;;;5027293;28;20018;-82
2022/08/29 10:20:27;;;;;;;1.13;0.82;;;22.70;53.70;;;;;;5013182;28;20033;-82
2022/08/29 10:23:05;;;;;;;2.60;1.38;;;22.80;53.90;;;;;;5015962;28;20028;-81
2022/08/29 10:25:35;;;;;;;1.80;1.08;;;22.80;53.70;;;;;;5010716;28;20041;-83
2022/08/29 10:28:24;;;;;;;1.95;0.95;;;23.00;53.90;;;;;;5010443;28;20033;-85
2022/08/29 10:30:59;;;;;;;10.07;1.35;;;23.10;53.70;;;;;;5024086;28;20044;-83
2022/08/29 10:33:33;;;;;;;2.75;0.93;;;23.20;53.70;;;;;;5007530;28;20048;-84
2022/08/29 10:36:18;;;;;;;3.08;1.33;;;23.30;53.40;;;;;;5024544;28;20373;-81
2022/08/29 10:38:54;;;;;;;1.35;0.85;;;23.30;52.80;;;;;;5000372;28;20140;-83
2022/08/29 10:41:34;;;;;;;1.92;0.82;;;23.30;52.70;;;;;;5026245;28;20154;-83
2022/08/29 10:44:42;;;;;;;2.65;0.90;;;23.50;52.80;;;;;;5019695;28;20152;-80
2022/08/29 10:47:09;;;;;;;2.17;0.65;;;23.70;52.60;;;;;;5033274;28;20041;-81
2022/08/29 10:49:55;;;;;;;1.75;0.80;;;23.90;52.70;;;;;;5011537;28;20611;-83
2022/08/29 10:52:58;;;;;;;1.48;0.60;;;24.10;52.20;;;;;;5006999;28;20041;-82
2022/08/29 10:55:48;;;;;;;2.22;0.70;;;24.30;51.80;;;;;;5026184;28;20074;-81
2022/08/29 10:58:27;;;;;;;1.73;1.00;;;24.40;51.40;;;;;;4991306;28;20049;-83
2022/08/29 11:01:21;;;;;;;1.77;0.70;;;24.50;51.30;;;;;;5003683;28;20045;-85
2022/08/29 11:04:17;;;;;;;4.57;1.35;;;24.60;51.30;;;;;;4996552;28;20037;-83
2022/08/29 11:07:05;;;;;;;1.15;0.75;;;24.70;51.20;;;;;;4997642;28;20040;-85
2022/08/29 11:09:54;;;;;;;2.30;0.75;;;24.80;51.20;;;;;;4989568;28;20021;-83
2022/08/29 11:12:45;;;;;;;1.55;1.10;;;24.80;51.20;;;;;;5020983;28;20039;-88
2022/08/29 11:15:24;;;;;;;1.27;0.68;;;24.80;51.10;;;;;;5000841;28;20030;-85
2022/08/29 11:18:38;;;;;;;1.40;0.95;;;24.90;51.30;;;;;;5013237;28;20051;-85
2022/08/29 11:21:23;;;;;;;;;;;24.90;51.10;;;;;;5013408;28;20208;-86
2022/08/29 11:23:49;;;;;;;2.00;0.80;;;25.00;51.50;;;;;;5006079;28;20324;-84
2022/08/29 11:26:30;;;;;;;1.15;0.77;;;25.10;51.60;;;;;;5012802;28;20349;-84
2022/08/29 11:29:15;;;;;;;2.53;1.13;;;25.10;51.30;;;;;;5009084;28;20030;-85
2022/08/29 11:32:03;;;;;;;4.82;0.68;;;25.30;51.00;;;;;;5026610;28;20168;-86
2022/08/29 11:35:03;;;;;;;1.70;0.80;;;25.40;51.10;;;;;;5010918;28;20055;-85
2022/08/29 11:37:32;;;;;;;2.45;1.13;;;25.60;51.10;;;;;;5024004;28;20065;-84
2022/08/29 11:40:13;;;;;;;3.10;1.38;;;25.80;50.90;;;;;;4998368;28;20033;-87
2022/08/29 11:42:42;;;;;;;2.55;1.08;;;26.00;50.60;;;;;;5005546;28;20037;-87
2022/08/29 11:45:13;;;;;;;2.33;0.95;;;26.20;50.40;;;;;;4994729;28;20026;-90
2022/08/29 11:48:16;;;;;;;1.45;0.88;;;26.30;50.10;;;;;;4996343;28;20057;-89
2022/08/29 11:50:42;;;;;;;2.45;0.85;;;26.40;49.70;;;;;;5009991;28;20086;-89
2022/08/29 11:53:12;;;;;;;2.45;0.80;;;26.40;49.80;;;;;;5002481;28;20026;-88
2022/08/29 11:55:39;;;;;;;2.08;0.93;;;26.40;49.60;;;;;;4992751;28;20037;-88
2022/08/29 11:58:14;;;;;;;1.10;0.82;;;26.30;49.40;;;;;;4996613;28;20022;-89
2022/08/29 12:00:43;;;;;;;1.20;1.02;;;26.30;49.10;;;;;;5012718;28;20034;-89
2022/08/29 12:03:31;;;;;;;1.73;0.90;;;26.20;49.10;;;;;;5016416;28;20461;-88
2022/08/29 12:06:14;;;;;;;1.90;1.42;;;26.20;48.80;;;;;;5032465;28;20040;-89
2022/08/29 12:08:52;;;;;;;2.92;1.02;;;26.20;48.60;;;;;;5017645;28;20060;-93
2022/08/29 12:11:19;;;;;;;2.67;1.00;;;26.20;48.70;;;;;;4995897;28;20131;-91
2022/08/29 12:13:47;;;;;;;1.58;0.90;;;26.40;48.70;;;;;;5014832;28;20047;-89
2022/08/29 12:16:23;;;;;;;1.23;1.00;;;26.50;48.50;;;;;;5012993;28;20040;-83
2022/08/29 12:18:54;;;;;;;1.70;1.10;;;26.60;48.30;;;;;;5023549;28;20028;-85
2022/08/29 12:21:35;;;;;;;2.10;1.30;;;26.70;48.00;;;;;;5030282;28;20052;-84
2022/08/29 12:24:24;;;;;;;2.97;1.48;;;26.80;47.60;;;;;;4994285;28;20041;-87
2022/08/29 12:26:51;;;;;;;2.08;1.00;;;26.80;47.40;;;;;;5025082;28;20041;-83
2022/08/29 12:29:41;;;;;;;6.13;1.35;;;26.90;47.20;;;;;;4998252;28;20504;-83
2022/08/29 12:32:31;;;;;;;3.55;1.65;;;27.00;46.70;;;;;;4992735;28;20033;-79
2022/08/29 12:35:09;;;;;;;2.70;1.67;;;27.00;46.50;;;;;;5029401;28;20059;-79
2022/08/29 12:37:54;;;;;;;1.70;1.42;;;27.10;46.40;;;;;;5014563;28;20034;-83
2022/08/29 12:40:41;;;;;;;3.10;1.30;;;27.10;46.20;;;;;;5014269;28;20037;-79
2022/08/29 12:43:16;;;;;;;2.60;1.20;;;27.20;45.70;;;;;;5024013;28;20025;-82
2022/08/29 12:45:43;;;;;;;2.47;1.50;;;27.10;45.60;;;;;;5011631;28;20175;-84
2022/08/29 12:48:21;;;;;;;2.05;1.25;;;26.90;45.50;;;;;;5009960;28;20060;-80
2022/08/29 12:50:49;;;;;;;1.30;1.02;;;26.80;45.20;;;;;;5007032;28;20508;-80
2022/08/29 12:53:15;;;;;;;2.00;1.70;;;26.70;45.30;;;;;;4992982;28;20030;-81
2022/08/29 12:55:45;;;;;;;2.50;2.08;;;26.60;45.30;;;;;;5005949;28;20112;-81
2022/08/29 12:58:13;;;;;;;2.75;1.70;;;26.70;45.20;;;;;;5019738;28;20037;-82
2022/08/29 13:00:40;;;;;;;1.23;1.13;;;26.70;44.80;;;;;;5010878;28;20068;-81
2022/08/29 13:03:07;;;;;;;1.33;1.13;;;26.80;44.70;;;;;;5022612;28;20051;-81
2022/08/29 13:05:36;;;;;;;1.65;1.40;;;26.90;44.40;;;;;;4999124;28;20040;-82
2022/08/29 13:08:24;;;;;;;5.55;1.42;;;26.90;44.20;;;;;;4995692;28;20029;-83
2022/08/29 13:11:02;;;;;;;3.83;1.35;;;26.90;44.20;;;;;;5024990;28;20049;-81
2022/08/29 13:13:28;;;;;;;2.00;1.23;;;26.90;44.30;;;;;;5013131;28;20082;-84
2022/08/29 13:16:00;;;;;;;2.28;1.30;;;26.90;44.90;;;;;;5024523;28;20021;-82
2022/08/29 13:18:27;;;;;;;5.25;1.58;;;26.90;44.20;;;;;;5026357;28;20040;-81